Time;durP1;ratioP1;P1;durP2;ratioP2;P2;SDS_P1;SDS_P2;PMS_P1;PMS_P2;Temp;Humidity;BMP_temperature;BMP_pressure;BME280_temperature;BME280_humidity;BME280_pressure;Samples;Min_cycle;Max_cycle;Signal;HPM_P1;HPM_P2
2021/12/06 00:01:21;;;;;;;67.93;29.40;;;7.70;99.90;;;;;;4115768;28;20297;-92
2021/12/06 00:03:38;;;;;;;69.57;28.33;;;7.30;99.90;;;;;;4097949;29;20206;-92
2021/12/06 00:05:39;;;;;;;50.47;26.07;;;7.60;99.90;;;;;;4100016;29;20694;-92
2021/12/06 00:07:40;;;;;;;48.50;25.40;;;7.70;99.90;;;;;;4099909;29;20183;-91
2021/12/06 00:09:41;;;;;;;35.90;23.17;;;7.50;99.90;;;;;;4115636;28;20590;-91
2021/12/06 00:11:42;;;;;;;34.83;22.37;;;7.20;99.90;;;;;;4115969;28;20250;-93
2021/12/06 00:13:46;;;;;;;34.30;20.73;;;7.10;99.90;;;;;;4115635;28;20185;-92
2021/12/06 00:15:49;;;;;;;34.80;21.60;;;6.80;99.90;;;;;;4099814;29;20270;-91
2021/12/06 00:17:50;;;;;;;35.57;22.47;;;7.10;99.90;;;;;;4099780;29;20178;-92
2021/12/06 00:19:51;;;;;;;34.77;20.90;;;7.60;99.90;;;;;;4115707;28;20183;-91
2021/12/06 00:21:52;;;;;;;37.50;22.20;;;7.90;99.90;;;;;;4099501;29;20206;-90
2021/12/06 00:23:52;;;;;;;36.47;22.40;;;8.00;99.90;;;;;;4099810;28;20209;-92
2021/12/06 00:25:54;;;;;;;39.73;23.47;;;8.00;99.90;;;;;;4115849;28;20189;-91
2021/12/06 00:27:55;;;;;;;37.80;23.70;;;7.90;99.90;;;;;;4100007;29;20214;-91
2021/12/06 00:29:57;;;;;;;41.97;24.63;;;7.80;99.90;;;;;;4115647;28;20213;-92
2021/12/06 00:32:00;;;;;;;40.77;24.70;;;7.70;99.90;;;;;;4099571;28;20175;-92
2021/12/06 00:34:07;;;;;;;38.80;23.77;;;7.40;99.90;;;;;;4102754;29;20282;-93
2021/12/06 00:36:16;;;;;;;43.87;25.10;;;7.20;99.90;;;;;;4103083;28;20175;-92
2021/12/06 00:38:17;;;;;;;40.93;24.77;;;7.10;99.90;;;;;;4103037;29;20182;-91
2021/12/06 00:40:17;;;;;;;43.03;24.10;;;7.00;99.90;;;;;;4102590;29;20179;-93
2021/12/06 00:42:21;;;;;;;37.97;24.03;;;7.10;99.90;;;;;;4102541;29;20303;-90
2021/12/06 00:44:22;;;;;;;35.40;22.80;;;6.90;99.90;;;;;;4102463;29;20209;-92
2021/12/06 00:46:25;;;;;;;40.03;23.00;;;7.00;99.90;;;;;;4102900;28;20199;-92
2021/12/06 00:48:26;;;;;;;38.97;23.43;;;7.10;99.90;;;;;;4118564;28;20257;-90
2021/12/06 00:50:30;;;;;;;39.00;22.87;;;7.10;99.90;;;;;;4118571;28;20178;-89
2021/12/06 00:52:31;;;;;;;36.73;22.73;;;6.80;99.90;;;;;;4102571;29;20258;-88
2021/12/06 00:54:34;;;;;;;37.10;22.37;;;6.50;99.90;;;;;;4118444;28;20194;-88
2021/12/06 00:56:37;;;;;;;33.97;22.07;;;6.70;99.90;;;;;;4102584;28;20202;-89
2021/12/06 00:58:39;;;;;;;35.33;22.90;;;6.70;99.90;;;;;;4102496;29;20190;-89
2021/12/06 01:00:43;;;;;;;36.70;22.60;;;6.90;99.90;;;;;;4118049;28;20534;-88
2021/12/06 01:02:44;;;;;;;37.33;21.43;;;6.80;99.90;;;;;;4102144;29;20209;-89
2021/12/06 01:04:47;;;;;;;33.73;20.50;;;6.50;99.90;;;;;;4102211;29;20281;-89
2021/12/06 01:06:47;;;;;;;31.60;20.23;;;6.20;99.90;;;;;;4102186;29;20183;-90
2021/12/06 01:08:48;;;;;;;33.60;20.27;;;6.00;99.90;;;;;;4102125;29;20575;-90
2021/12/06 01:10:50;;;;;;;35.30;20.60;;;5.90;99.90;;;;;;4102274;29;20190;-89
2021/12/06 01:12:51;;;;;;;31.37;20.67;;;5.80;99.90;;;;;;4102096;29;20175;-89
2021/12/06 01:14:52;;;;;;;29.97;19.13;;;5.60;99.90;;;;;;4102240;29;20258;-89
2021/12/06 01:16:53;;;;;;;29.73;20.03;;;5.50;99.90;;;;;;4102215;29;20186;-89
2021/12/06 01:18:55;;;;;;;30.47;19.20;;;5.40;99.90;;;;;;4102201;28;20643;-89
2021/12/06 01:23:19;;;;;;;31.33;18.10;;;5.00;99.90;;;;;;4118150;28;20198;-88
2021/12/06 01:30:01;;;;;;;30.97;19.53;;;4.90;99.90;;;;;;4117715;28;20206;-89
2021/12/06 01:39:16;;;;;;;30.33;18.83;;;4.70;99.90;;;;;;4117862;28;20666;-89
2021/12/06 01:41:19;;;;;;;35.10;21.30;;;4.60;99.90;;;;;;4117667;28;20183;-89
2021/12/06 01:43:25;;;;;;;31.43;18.93;;;4.60;99.90;;;;;;4117457;28;20589;-90
2021/12/06 01:45:26;;;;;;;33.43;21.20;;;4.70;99.90;;;;;;4100873;29;20199;-90
2021/12/06 01:47:32;;;;;;;28.97;18.57;;;4.90;99.90;;;;;;4101676;29;20194;-89
2021/12/06 01:49:42;;;;;;;32.60;20.07;;;4.90;99.90;;;;;;4102031;28;20258;-89
2021/12/06 01:51:44;;;;;;;31.60;19.30;;;4.90;99.90;;;;;;4102006;29;20241;-88
2021/12/06 01:53:45;;;;;;;31.07;19.57;;;4.90;99.90;;;;;;4101820;29;20178;-89
2021/12/06 01:55:46;;;;;;;35.23;22.13;;;5.00;99.90;;;;;;4117698;28;20236;-89
2021/12/06 01:57:47;;;;;;;33.53;21.57;;;5.40;99.90;;;;;;4101700;28;20183;-88
2021/12/06 01:59:49;;;;;;;33.67;20.63;;;6.10;99.90;;;;;;4117671;28;20265;-89
2021/12/06 02:01:51;;;;;;;30.93;21.03;;;5.70;99.90;;;;;;4101444;29;20540;-89
2021/12/06 02:03:52;;;;;;;30.10;20.47;;;5.70;99.90;;;;;;4101376;29;20178;-88
2021/12/06 02:05:53;;;;;;;40.10;21.13;;;5.80;99.90;;;;;;4117203;28;20677;-89
2021/12/06 02:07:57;;;;;;;36.27;21.90;;;6.20;99.90;;;;;;4101679;28;20634;-89
2021/12/06 02:09:58;;;;;;;35.67;22.33;;;6.10;99.90;;;;;;4101300;29;20166;-89
2021/12/06 02:12:03;;;;;;;38.10;22.70;;;6.80;99.90;;;;;;4101479;28;20175;-89
2021/12/06 02:14:25;;;;;;;38.10;23.13;;;7.20;99.90;;;;;;4101135;28;20191;-89
2021/12/06 02:16:36;;;;;;;38.70;24.33;;;7.30;99.90;;;;;;4117326;28;20213;-88
2021/12/06 02:20:48;;;;;;;40.13;23.13;;;7.20;99.90;;;;;;4116960;28;20182;-89
2021/12/06 02:22:50;;;;;;;37.30;23.37;;;6.80;99.90;;;;;;4101046;29;20218;-89
2021/12/06 02:24:53;;;;;;;41.97;24.77;;;6.70;99.90;;;;;;4100881;29;20194;-90
2021/12/06 02:26:54;;;;;;;39.90;23.40;;;7.00;99.90;;;;;;4101058;29;20198;-89
2021/12/06 02:28:56;;;;;;;36.07;22.80;;;6.70;99.90;;;;;;4100971;29;20183;-89
2021/12/06 02:30:57;;;;;;;33.50;21.80;;;6.10;99.90;;;;;;4100902;29;20265;-88
2021/12/06 02:32:59;;;;;;;35.87;22.20;;;5.80;99.90;;;;;;4100878;29;20564;-89
2021/12/06 02:35:00;;;;;;;38.63;23.57;;;6.10;99.90;;;;;;4100634;29;20238;-89
2021/12/06 02:37:03;;;;;;;44.17;23.57;;;6.70;99.90;;;;;;4100722;29;20171;-89
2021/12/06 02:39:09;;;;;;;36.83;23.43;;;6.60;99.90;;;;;;4100924;28;20319;-89
2021/12/06 02:41:10;;;;;;;38.63;22.53;;;6.70;99.90;;;;;;4101211;29;20185;-89
2021/12/06 02:43:12;;;;;;;43.40;24.20;;;7.00;99.90;;;;;;4100791;29;20622;-88
2021/12/06 02:45:17;;;;;;;41.20;22.80;;;7.10;99.90;;;;;;4116755;28;20682;-89
2021/12/06 02:47:19;;;;;;;34.80;20.43;;;6.40;99.90;;;;;;4100854;29;20244;-88
2021/12/06 02:49:21;;;;;;;35.43;21.23;;;5.60;99.90;;;;;;4100794;29;20206;-89
2021/12/06 02:51:24;;;;;;;36.13;21.67;;;5.40;99.90;;;;;;4100800;28;20521;-89
2021/12/06 02:53:27;;;;;;;37.43;22.40;;;5.40;99.90;;;;;;4100829;29;20332;-89
2021/12/06 02:55:36;;;;;;;35.23;21.40;;;5.50;99.90;;;;;;4100250;28;20195;-89
2021/12/06 02:57:38;;;;;;;36.53;20.53;;;5.50;99.90;;;;;;4100643;29;20305;-89
2021/12/06 02:59:43;;;;;;;33.27;20.67;;;5.50;99.90;;;;;;4100643;28;20166;-88
2021/12/06 03:01:47;;;;;;;31.23;20.87;;;5.50;99.90;;;;;;4116455;28;20574;-89
2021/12/06 03:03:48;;;;;;;28.53;19.37;;;5.70;99.90;;;;;;4116595;28;20181;-90
2021/12/06 03:05:51;;;;;;;30.67;19.70;;;5.60;99.90;;;;;;4100828;29;20175;-88
2021/12/06 03:07:58;;;;;;;33.23;20.57;;;5.50;99.90;;;;;;4100500;28;20779;-88
2021/12/06 03:10:00;;;;;;;30.27;19.37;;;5.70;99.90;;;;;;4100573;28;20179;-90
2021/12/06 03:12:14;;;;;;;31.10;19.50;;;5.60;99.90;;;;;;4100364;29;20175;-90
2021/12/06 03:14:26;;;;;;;35.37;20.10;;;5.20;99.90;;;;;;4100481;29;20289;-89
2021/12/06 03:16:31;;;;;;;31.90;20.10;;;5.00;99.90;;;;;;4100883;28;20175;-89
2021/12/06 03:18:32;;;;;;;35.97;21.17;;;4.90;99.90;;;;;;4100388;29;20197;-90
2021/12/06 03:20:34;;;;;;;35.50;21.40;;;5.20;99.90;;;;;;4100600;29;20167;-89
2021/12/06 03:22:34;;;;;;;32.60;19.00;;;5.40;99.90;;;;;;4116434;28;20470;-89
2021/12/06 03:24:36;;;;;;;32.83;20.53;;;5.10;99.90;;;;;;4116342;28;20202;-89
2021/12/06 03:26:39;;;;;;;33.40;19.60;;;5.10;99.90;;;;;;4116208;28;20178;-90
2021/12/06 03:28:42;;;;;;;32.73;20.13;;;5.10;99.90;;;;;;4100366;29;20173;-89
2021/12/06 03:30:44;;;;;;;35.67;21.57;;;5.10;99.90;;;;;;4100203;28;20179;-89
2021/12/06 03:32:45;;;;;;;31.57;19.80;;;5.10;99.90;;;;;;4100104;28;20528;-89
2021/12/06 03:34:46;;;;;;;34.17;20.60;;;4.90;99.90;;;;;;4100111;29;20262;-89
2021/12/06 03:36:48;;;;;;;29.73;18.70;;;4.80;99.90;;;;;;4116262;28;20194;-90
2021/12/06 03:38:51;;;;;;;37.27;20.17;;;4.90;99.90;;;;;;4100288;28;20642;-89
2021/12/06 03:40:53;;;;;;;38.27;22.40;;;5.10;99.90;;;;;;4100104;28;20170;-88
2021/12/06 03:42:54;;;;;;;38.70;22.10;;;5.70;99.90;;;;;;4100191;29;20203;-90
2021/12/06 03:44:55;;;;;;;43.13;24.77;;;6.20;99.90;;;;;;4099693;29;20286;-89
2021/12/06 03:47:06;;;;;;;42.17;24.47;;;6.30;99.90;;;;;;4100012;28;20198;-89
2021/12/06 03:49:11;;;;;;;44.50;25.03;;;6.30;99.90;;;;;;4099975;28;20330;-88
2021/12/06 03:51:13;;;;;;;49.80;25.07;;;6.30;99.90;;;;;;4100080;29;20194;-88
2021/12/06 03:53:14;;;;;;;40.90;24.13;;;6.10;99.90;;;;;;4099976;29;20209;-89
2021/12/06 03:55:15;;;;;;;38.97;23.33;;;5.50;99.90;;;;;;4099672;29;20702;-89
2021/12/06 03:57:18;;;;;;;34.43;20.53;;;5.20;99.90;;;;;;4099981;29;20174;-90
2021/12/06 03:59:20;;;;;;;27.97;18.90;;;5.00;99.90;;;;;;4100052;28;20179;-89
2021/12/06 04:01:21;;;;;;;33.23;20.23;;;4.80;99.90;;;;;;4099988;28;20218;-89
2021/12/06 04:03:26;;;;;;;33.07;21.07;;;4.70;99.90;;;;;;4100140;29;20185;-89
2021/12/06 04:05:28;;;;;;;33.23;20.57;;;4.60;99.90;;;;;;4115864;28;20225;-89
2021/12/06 04:07:29;;;;;;;33.73;21.50;;;4.60;99.90;;;;;;4116689;28;21058;-89
2021/12/06 04:09:30;;;;;;;40.07;22.13;;;4.60;99.90;;;;;;4119163;28;20217;-89
2021/12/06 04:11:33;;;;;;;34.93;20.53;;;4.50;99.90;;;;;;4103122;29;20180;-90
2021/12/06 04:13:34;;;;;;;37.10;20.53;;;4.50;99.90;;;;;;4103121;29;20163;-89
2021/12/06 04:15:38;;;;;;;35.57;21.43;;;4.50;99.90;;;;;;4102867;29;20199;-89
2021/12/06 04:17:40;;;;;;;37.00;20.60;;;4.50;99.90;;;;;;4102982;29;20267;-89
2021/12/06 04:19:42;;;;;;;40.40;22.73;;;4.50;99.90;;;;;;4102925;29;20167;-90
2021/12/06 04:21:44;;;;;;;36.80;22.07;;;4.60;99.90;;;;;;4103009;29;20207;-89
2021/12/06 04:23:45;;;;;;;41.13;22.87;;;4.70;99.90;;;;;;4102797;28;20231;-88
2021/12/06 04:25:48;;;;;;;42.00;23.63;;;4.90;99.90;;;;;;4102783;29;20171;-90
2021/12/06 04:27:56;;;;;;;45.97;24.90;;;4.80;99.90;;;;;;4102807;28;20658;-89
2021/12/06 04:29:58;;;;;;;47.63;25.37;;;5.00;99.90;;;;;;4103045;28;20166;-89
2021/12/06 04:31:59;;;;;;;47.63;25.53;;;5.20;99.90;;;;;;4102853;29;20238;-89
2021/12/06 04:34:00;;;;;;;50.90;27.17;;;5.50;99.90;;;;;;4102838;29;20700;-88
2021/12/06 04:36:02;;;;;;;52.40;26.93;;;5.50;99.90;;;;;;4102869;29;20245;-89
2021/12/06 04:38:06;;;;;;;47.73;26.80;;;5.30;99.90;;;;;;4103211;28;20179;-88
2021/12/06 04:40:10;;;;;;;45.93;25.80;;;5.20;99.90;;;;;;4118850;28;20193;-89
2021/12/06 04:42:11;;;;;;;49.77;25.77;;;5.10;99.90;;;;;;4102519;29;20713;-89
2021/12/06 04:44:11;;;;;;;48.53;27.07;;;4.90;99.90;;;;;;4102725;29;20191;-89
2021/12/06 04:46:12;;;;;;;45.87;25.53;;;4.70;99.90;;;;;;4118637;28;20539;-89
2021/12/06 04:48:13;;;;;;;88.47;25.90;;;4.40;99.90;;;;;;4103110;29;20167;-89
2021/12/06 04:50:15;;;;;;;520.37;38.63;;;4.40;99.90;;;;;;4102577;29;20275;-89
2021/12/06 04:52:18;;;;;;;425.33;33.70;;;4.30;99.90;;;;;;4102538;29;20599;-90
2021/12/06 04:54:25;;;;;;;576.60;38.53;;;4.10;99.90;;;;;;4118418;28;20197;-89
2021/12/06 04:56:37;;;;;;;734.93;41.23;;;3.80;99.90;;;;;;4102633;29;20177;-89
2021/12/06 04:59:04;;;;;;;698.17;37.17;;;3.70;99.90;;;;;;4102387;29;20171;-89
2021/12/06 05:01:15;;;;;;;696.07;39.43;;;3.60;99.90;;;;;;4097382;29;20182;-88
2021/12/06 05:03:17;;;;;;;679.60;35.00;;;3.50;99.90;;;;;;4102571;28;20658;-89
2021/12/06 05:05:29;;;;;;;592.00;33.17;;;3.60;99.90;;;;;;4102334;28;20191;-90
2021/12/06 05:07:34;;;;;;;603.97;32.53;;;3.60;99.90;;;;;;4102564;29;20182;-94
2021/12/06 05:09:39;;;;;;;454.60;23.97;;;3.70;99.90;;;;;;4102146;29;20179;-90
2021/12/06 05:11:42;;;;;;;849.57;32.30;;;3.80;99.90;;;;;;4118221;28;20558;-91
2021/12/06 05:13:44;;;;;;;662.43;28.03;;;4.00;99.90;;;;;;4102152;29;20218;-90
2021/12/06 05:15:46;;;;;;;494.13;26.10;;;4.20;99.90;;;;;;4102213;28;20656;-89
2021/12/06 05:17:47;;;;;;;328.97;21.17;;;4.20;99.90;;;;;;4102070;29;20183;-90
2021/12/06 05:19:49;;;;;;;377.80;21.60;;;4.30;99.90;;;;;;4101853;28;20179;-89
2021/12/06 05:21:51;;;;;;;505.00;28.80;;;4.20;99.90;;;;;;4101858;28;20213;-89
2021/12/06 05:23:52;;;;;;;520.47;25.10;;;4.00;99.90;;;;;;4117797;28;20388;-89
2021/12/06 05:25:53;;;;;;;518.93;25.03;;;4.00;99.90;;;;;;4101848;29;20175;-90
2021/12/06 05:27:56;;;;;;;387.73;22.00;;;3.90;99.90;;;;;;4102615;29;20198;-90
2021/12/06 05:30:02;;;;;;;702.13;30.83;;;3.80;99.90;;;;;;4101698;28;20567;-89
2021/12/06 05:32:04;;;;;;;791.33;34.03;;;3.80;99.90;;;;;;4101990;29;20254;-89
2021/12/06 05:34:14;;;;;;;679.43;31.20;;;3.80;99.90;;;;;;4101991;28;20205;-89
2021/12/06 05:36:15;;;;;;;336.10;20.93;;;3.60;99.90;;;;;;4102026;29;20182;-90
2021/12/06 05:38:16;;;;;;;428.17;26.37;;;3.50;99.90;;;;;;4101993;29;20171;-89
2021/12/06 05:40:21;;;;;;;420.63;26.00;;;3.50;99.90;;;;;;4101792;29;20179;-89
2021/12/06 05:42:22;;;;;;;334.30;22.90;;;3.60;99.90;;;;;;4101809;29;20222;-89
2021/12/06 05:44:23;;;;;;;475.00;27.10;;;3.60;99.90;;;;;;4101590;29;20199;-89
2021/12/06 05:46:24;;;;;;;422.43;24.80;;;3.60;99.90;;;;;;4117782;28;20265;-89
2021/12/06 05:48:25;;;;;;;368.80;26.10;;;3.60;99.90;;;;;;4101586;29;20171;-89
2021/12/06 05:50:26;;;;;;;126.37;22.37;;;3.60;99.90;;;;;;4117762;28;20178;-89
2021/12/06 05:52:27;;;;;;;41.23;20.27;;;3.60;99.90;;;;;;4101758;29;20248;-89
2021/12/06 05:54:28;;;;;;;40.77;19.87;;;3.50;99.90;;;;;;4117635;28;20286;-89
2021/12/06 05:56:29;;;;;;;61.53;21.20;;;3.50;99.90;;;;;;4101731;29;20175;-89
2021/12/06 05:58:32;;;;;;;153.97;20.87;;;3.50;99.90;;;;;;4101691;29;20179;-89
2021/12/06 06:00:33;;;;;;;248.23;21.23;;;3.50;99.90;;;;;;4101573;29;20234;-89
2021/12/06 06:02:34;;;;;;;153.00;19.10;;;3.50;99.90;;;;;;4101479;28;20217;-90
2021/12/06 06:04:35;;;;;;;210.80;19.40;;;3.40;99.90;;;;;;4101511;29;20191;-89
2021/12/06 06:06:37;;;;;;;138.33;18.03;;;3.30;99.90;;;;;;4117520;28;20182;-89
2021/12/06 06:08:39;;;;;;;301.77;21.07;;;3.30;99.90;;;;;;4101408;29;20254;-89
2021/12/06 06:10:40;;;;;;;267.17;19.30;;;3.30;99.90;;;;;;4101380;29;20182;-89
2021/12/06 06:12:41;;;;;;;421.17;24.33;;;3.30;99.90;;;;;;4117373;28;20258;-89
2021/12/06 06:14:42;;;;;;;197.20;17.93;;;3.20;99.90;;;;;;4101156;28;20198;-89
2021/12/06 06:16:53;;;;;;;263.23;18.60;;;3.10;99.90;;;;;;4101095;29;20171;-89
2021/12/06 06:18:54;;;;;;;138.30;16.63;;;3.00;99.90;;;;;;4101412;29;20179;-89
2021/12/06 06:20:56;;;;;;;203.83;17.57;;;3.00;99.90;;;;;;4117107;28;20204;-87
2021/12/06 06:22:56;;;;;;;186.07;17.27;;;3.00;99.90;;;;;;4117120;28;20238;-89
2021/12/06 06:24:57;;;;;;;275.77;17.90;;;2.90;99.90;;;;;;4100815;29;20198;-89
2021/12/06 06:26:58;;;;;;;414.73;20.70;;;2.90;99.90;;;;;;4117032;28;20198;-88
2021/12/06 06:28:59;;;;;;;340.53;19.07;;;2.80;99.90;;;;;;4116805;28;20186;-89
2021/12/06 06:31:00;;;;;;;557.03;23.53;;;2.80;99.90;;;;;;4100348;28;20175;-89
2021/12/06 06:33:02;;;;;;;583.47;25.43;;;2.70;99.90;;;;;;4101246;29;20183;-89
2021/12/06 06:35:04;;;;;;;457.43;24.93;;;2.60;99.90;;;;;;4100885;29;20365;-93
2021/12/06 06:37:05;;;;;;;438.43;23.10;;;2.60;99.90;;;;;;4117106;28;20204;-88
2021/12/06 06:39:08;;;;;;;522.47;25.00;;;2.50;99.90;;;;;;4101328;29;20170;-89
2021/12/06 06:41:09;;;;;;;658.97;26.53;;;2.60;99.90;;;;;;4101007;29;20246;-89
2021/12/06 06:43:10;;;;;;;829.70;31.53;;;2.70;99.90;;;;;;4100929;29;20215;-90
2021/12/06 06:45:16;;;;;;;784.40;30.27;;;2.80;99.90;;;;;;4100567;29;20186;-89
2021/12/06 06:47:18;;;;;;;707.43;30.60;;;2.90;99.90;;;;;;4116939;28;20178;-90
2021/12/06 06:49:19;;;;;;;661.17;26.10;;;2.80;99.90;;;;;;4128747;28;20261;-90
2021/12/06 06:51:20;;;;;;;616.63;27.13;;;2.90;99.90;;;;;;4134084;28;20177;-89
2021/12/06 06:53:21;;;;;;;508.43;24.93;;;2.90;99.90;;;;;;4119257;28;20185;-89
2021/12/06 06:55:22;;;;;;;587.10;25.47;;;2.90;99.90;;;;;;4100566;28;20234;-90
2021/12/06 06:57:23;;;;;;;147.97;18.63;;;2.80;99.90;;;;;;4100458;28;20174;-89
2021/12/06 06:59:24;;;;;;;436.17;21.90;;;2.70;99.90;;;;;;4100529;29;20185;-90
2021/12/06 07:01:25;;;;;;;401.13;22.50;;;2.70;99.90;;;;;;4100748;29;20183;-91
2021/12/06 07:03:29;;;;;;;403.37;23.30;;;2.70;99.90;;;;;;4100682;29;20183;-90
2021/12/06 07:05:31;;;;;;;753.33;29.93;;;2.80;99.90;;;;;;4100522;28;20218;-90
2021/12/06 07:07:32;;;;;;;878.43;31.77;;;2.80;99.90;;;;;;4100563;28;20181;-89
2021/12/06 07:09:32;;;;;;;244.63;16.47;;;2.80;99.90;;;;;;4116316;28;20177;-90
2021/12/06 07:11:33;;;;;;;754.83;29.00;;;2.80;99.90;;;;;;4116752;28;20170;-90
2021/12/06 07:13:38;;;;;;;543.40;22.63;;;2.70;99.90;;;;;;4100581;29;20562;-89
2021/12/06 07:15:39;;;;;;;949.73;36.83;;;2.70;99.90;;;;;;4100454;29;20563;-90
2021/12/06 07:17:41;;;;;;;690.73;27.07;;;2.80;99.90;;;;;;4100574;29;20171;-89
2021/12/06 07:19:42;;;;;;;549.77;24.30;;;2.80;99.90;;;;;;4100831;28;20596;-89
2021/12/06 07:21:43;;;;;;;530.37;22.93;;;2.90;99.90;;;;;;4100538;29;20611;-89
2021/12/06 07:23:44;;;;;;;664.27;25.97;;;2.90;99.90;;;;;;4116318;28;20543;-89
2021/12/06 07:25:45;;;;;;;516.57;24.57;;;3.10;99.90;;;;;;4100455;29;20242;-90
2021/12/06 07:27:47;;;;;;;725.63;29.20;;;3.10;99.90;;;;;;4100538;29;20185;-90
2021/12/06 07:29:48;;;;;;;646.50;24.07;;;3.20;99.90;;;;;;4116309;28;20207;-90
2021/12/06 07:31:49;;;;;;;825.87;28.50;;;3.10;99.90;;;;;;4100329;29;20190;-90
2021/12/06 07:33:51;;;;;;;727.10;26.23;;;2.90;99.90;;;;;;4100393;29;20179;-90
2021/12/06 07:35:52;;;;;;;394.13;18.03;;;3.00;99.90;;;;;;4116105;28;20178;-89
2021/12/06 07:37:53;;;;;;;900.23;30.23;;;2.90;99.90;;;;;;4099965;29;20174;-91
2021/12/06 07:39:54;;;;;;;690.27;24.03;;;2.90;99.90;;;;;;4100027;29;20167;-90
2021/12/06 07:41:55;;;;;;;342.83;16.13;;;2.80;99.90;;;;;;4099890;28;20660;-89
2021/12/06 07:43:57;;;;;;;448.93;18.40;;;2.60;99.90;;;;;;4100084;29;20520;-89
2021/12/06 07:45:58;;;;;;;198.27;14.17;;;2.60;99.90;;;;;;4100109;29;20167;-89
2021/12/06 07:47:59;;;;;;;761.37;26.57;;;2.60;99.90;;;;;;4116030;28;20229;-91
2021/12/06 07:49:59;;;;;;;849.60;29.33;;;2.80;99.90;;;;;;4101077;29;20254;-90
2021/12/06 07:52:00;;;;;;;808.97;28.57;;;3.00;99.90;;;;;;4115972;28;20186;-90
2021/12/06 07:54:02;;;;;;;748.80;26.27;;;3.10;99.90;;;;;;4100464;29;20532;-89
2021/12/06 07:56:03;;;;;;;695.13;24.10;;;3.10;99.90;;;;;;4100119;29;20624;-89
2021/12/06 07:58:05;;;;;;;426.67;17.07;;;3.20;99.90;;;;;;4100479;29;20632;-89
2021/12/06 08:00:10;;;;;;;686.43;24.43;;;3.00;99.90;;;;;;4100090;28;20585;-90
2021/12/06 08:02:11;;;;;;;679.80;25.40;;;3.00;99.90;;;;;;4116061;28;20220;-92
2021/12/06 08:04:11;;;;;;;598.80;22.47;;;3.00;99.90;;;;;;4115753;28;20678;-90
2021/12/06 08:06:12;;;;;;;181.17;12.97;;;2.90;99.90;;;;;;4100732;28;20219;-90
2021/12/06 08:08:17;;;;;;;294.90;15.50;;;2.70;99.90;;;;;;4099851;29;20635;-89
2021/12/06 08:10:18;;;;;;;659.50;23.37;;;2.50;99.90;;;;;;4100008;29;20174;-90
2021/12/06 08:12:19;;;;;;;426.77;17.50;;;2.50;99.90;;;;;;4115864;28;20229;-89
2021/12/06 08:14:20;;;;;;;384.60;16.70;;;2.60;99.90;;;;;;4099729;29;20202;-90
2021/12/06 08:16:27;;;;;;;167.90;13.90;;;2.60;99.90;;;;;;4115784;28;20238;-90
2021/12/06 08:18:27;;;;;;;420.63;16.90;;;2.60;99.90;;;;;;4100200;29;20210;-92
2021/12/06 08:20:28;;;;;;;607.57;23.50;;;2.40;99.90;;;;;;4099845;29;20647;-89
2021/12/06 08:22:30;;;;;;;576.53;21.13;;;2.50;99.90;;;;;;4099538;28;20218;-90
2021/12/06 08:24:31;;;;;;;358.10;17.17;;;2.70;99.90;;;;;;4101392;29;20203;-90
2021/12/06 08:26:35;;;;;;;410.60;16.50;;;2.60;99.90;;;;;;4100154;29;20226;-92
2021/12/06 08:28:36;;;;;;;409.13;18.00;;;2.60;99.90;;;;;;4099930;29;20200;-91
2021/12/06 08:30:37;;;;;;;190.27;14.27;;;2.70;99.90;;;;;;4100119;28;20175;-90
2021/12/06 08:32:39;;;;;;;127.67;12.57;;;2.60;99.90;;;;;;4100151;29;20253;-89
2021/12/06 08:34:41;;;;;;;263.07;15.40;;;2.70;99.90;;;;;;4100006;29;20219;-90
2021/12/06 08:36:42;;;;;;;267.20;16.70;;;2.70;99.90;;;;;;4100163;29;20532;-90
2021/12/06 08:38:43;;;;;;;292.20;17.30;;;2.70;99.90;;;;;;4116293;28;20190;-90
2021/12/06 08:40:45;;;;;;;242.13;15.53;;;2.70;99.90;;;;;;4099635;29;20212;-91
2021/12/06 08:42:46;;;;;;;133.23;13.50;;;2.80;99.90;;;;;;4099611;28;20229;-91
2021/12/06 08:44:47;;;;;;;333.50;16.73;;;2.80;99.90;;;;;;4099481;29;20250;-91
2021/12/06 08:46:48;;;;;;;233.83;14.53;;;3.00;99.90;;;;;;4099587;28;20174;-90
2021/12/06 08:48:50;;;;;;;115.30;12.90;;;2.90;99.90;;;;;;4099705;29;20266;-90
2021/12/06 08:50:53;;;;;;;320.27;16.43;;;2.80;99.90;;;;;;4099442;29;20620;-91
2021/12/06 08:52:54;;;;;;;323.90;16.77;;;2.90;99.90;;;;;;4099463;28;20183;-91
2021/12/06 08:54:55;;;;;;;342.83;18.20;;;3.20;99.90;;;;;;4118366;28;20682;-91
2021/12/06 08:56:58;;;;;;;286.30;16.43;;;3.40;99.90;;;;;;4102780;29;20179;-91
2021/12/06 08:58:59;;;;;;;277.10;17.77;;;3.50;99.90;;;;;;4102472;29;20269;-90
2021/12/06 09:01:00;;;;;;;335.07;18.70;;;3.60;99.90;;;;;;4102485;29;20187;-90
2021/12/06 09:03:02;;;;;;;286.60;16.23;;;3.80;99.90;;;;;;4102386;29;20222;-91
2021/12/06 09:05:03;;;;;;;139.27;13.20;;;3.80;99.90;;;;;;4102280;29;20226;-91
2021/12/06 09:07:11;;;;;;;155.67;12.50;;;3.80;99.90;;;;;;4102411;29;20567;-90
2021/12/06 09:09:12;;;;;;;227.47;15.37;;;3.90;99.90;;;;;;4102444;29;20212;-91
2021/12/06 09:11:13;;;;;;;164.73;22.80;;;3.70;99.90;;;;;;4102425;29;20179;-90
2021/12/06 09:13:14;;;;;;;106.83;16.40;;;3.70;99.90;;;;;;4102286;29;20210;-91
2021/12/06 09:15:18;;;;;;;76.63;19.17;;;3.50;99.90;;;;;;4118116;28;20560;-90
2021/12/06 09:17:19;;;;;;;52.93;13.30;;;3.30;99.90;;;;;;4102339;29;20631;-90
2021/12/06 09:19:21;;;;;;;73.10;15.13;;;3.40;99.90;;;;;;4106440;29;20171;-91
2021/12/06 09:21:22;;;;;;;255.70;14.87;;;3.50;99.90;;;;;;4132697;28;20221;-91
2021/12/06 09:23:23;;;;;;;241.57;14.70;;;3.60;99.90;;;;;;4136162;28;20177;-91
2021/12/06 09:25:27;;;;;;;93.67;11.57;;;3.70;99.90;;;;;;4138494;28;20190;-91
2021/12/06 09:27:27;;;;;;;69.97;12.03;;;3.70;99.90;;;;;;4105668;29;20211;-89
2021/12/06 09:29:31;;;;;;;43.37;11.63;;;3.60;99.90;;;;;;4104554;29;20175;-91
2021/12/06 09:31:33;;;;;;;44.77;11.77;;;3.20;99.90;;;;;;4103199;29;20329;-90
2021/12/06 09:33:35;;;;;;;70.27;12.60;;;3.10;99.90;;;;;;4102284;29;20179;-90
2021/12/06 09:35:39;;;;;;;199.57;15.80;;;2.90;99.90;;;;;;4118154;28;20202;-91
2021/12/06 09:37:40;;;;;;;197.00;16.07;;;3.00;99.90;;;;;;4102131;29;20238;-92
2021/12/06 09:39:41;;;;;;;263.30;16.53;;;3.20;99.90;;;;;;4101991;29;20175;-90
2021/12/06 09:41:42;;;;;;;304.97;19.87;;;3.50;99.90;;;;;;4101892;29;20690;-90
2021/12/06 09:43:43;;;;;;;111.87;15.30;;;3.90;99.90;;;;;;4117849;28;20186;-92
2021/12/06 09:45:46;;;;;;;145.87;17.53;;;4.10;99.90;;;;;;4102202;29;20179;-90
2021/12/06 09:47:52;;;;;;;31.83;15.20;;;4.00;99.90;;;;;;4118115;28;20178;-89
2021/12/06 09:49:52;;;;;;;24.17;14.73;;;4.20;99.90;;;;;;4101863;29;20179;-91
2021/12/06 09:51:57;;;;;;;23.17;14.93;;;4.20;99.90;;;;;;4118006;28;20177;-90
2021/12/06 09:53:59;;;;;;;23.83;15.67;;;4.40;99.90;;;;;;4101961;29;20190;-90
2021/12/06 09:56:06;;;;;;;23.20;15.90;;;4.70;99.90;;;;;;4102289;29;20175;-92
2021/12/06 09:58:07;;;;;;;28.97;16.90;;;4.90;99.90;;;;;;4102182;29;20171;-94
2021/12/06 10:00:11;;;;;;;26.47;16.43;;;4.80;99.90;;;;;;4101921;29;20175;-91
2021/12/06 10:02:16;;;;;;;27.37;16.53;;;4.60;99.90;;;;;;4101808;29;20651;-90
2021/12/06 10:04:25;;;;;;;28.17;17.33;;;4.40;99.90;;;;;;4101707;28;20195;-90
2021/12/06 10:06:28;;;;;;;37.30;17.20;;;4.60;99.90;;;;;;4116912;28;20182;-89
2021/12/06 10:08:31;;;;;;;28.87;17.43;;;4.60;99.90;;;;;;4101701;29;20217;-91
2021/12/06 10:10:32;;;;;;;28.90;17.37;;;4.70;99.90;;;;;;4101500;29;20250;-91
2021/12/06 10:12:34;;;;;;;30.47;17.63;;;4.80;99.90;;;;;;4117600;28;20182;-92
2021/12/06 10:14:36;;;;;;;30.20;18.03;;;4.90;99.90;;;;;;4116910;28;20193;-90
2021/12/06 10:16:38;;;;;;;29.03;17.40;;;4.90;99.90;;;;;;4095547;29;20536;-90
2021/12/06 10:18:40;;;;;;;29.17;17.80;;;5.00;99.90;;;;;;4099944;28;20192;-91
2021/12/06 10:20:43;;;;;;;27.20;17.57;;;5.10;99.90;;;;;;4100338;29;20995;-90
2021/12/06 10:22:44;;;;;;;29.30;17.97;;;5.00;99.90;;;;;;4097939;29;20199;-91
2021/12/06 10:24:59;;;;;;;31.27;17.93;;;4.70;99.90;;;;;;4100437;28;20198;-90
2021/12/06 10:27:14;;;;;;;25.60;17.13;;;4.90;99.90;;;;;;4108601;28;20638;-90
2021/12/06 10:29:23;;;;;;;29.47;17.90;;;5.20;99.90;;;;;;4107192;28;20253;-91
2021/12/06 10:31:25;;;;;;;29.27;17.37;;;5.30;99.90;;;;;;4116241;28;20272;-92
2021/12/06 10:33:30;;;;;;;30.23;17.20;;;5.40;99.90;;;;;;4116527;28;20178;-89
2021/12/06 10:35:32;;;;;;;27.00;16.80;;;5.70;99.90;;;;;;4100157;29;20671;-90
2021/12/06 10:37:35;;;;;;;25.77;16.30;;;5.90;99.90;;;;;;4100194;29;20210;-91
2021/12/06 10:39:36;;;;;;;24.93;16.17;;;6.10;99.90;;;;;;4100523;29;20175;-90
2021/12/06 10:41:38;;;;;;;26.23;16.57;;;6.10;99.90;;;;;;4116419;28;20170;-92
2021/12/06 10:43:48;;;;;;;23.53;15.93;;;6.00;99.90;;;;;;4100434;29;20187;-91